Time;durP1;ratioP1;P1;durP2;ratioP2;P2;SDS_P1;SDS_P2;PMS_P1;PMS_P2;Temp;Humidity;BMP_temperature;BMP_pressure;BME280_temperature;BME280_humidity;BME280_pressure;Samples;Min_cycle;Max_cycle;Signal;HPM_P1;HPM_P2
2022/09/15 07:21:52;;;;;;;10.83;7.67;;;17.50;99.90;;;;;;6076471;23;20443;-76
2022/09/15 07:24:19;;;;;;;8.67;5.00;;;17.50;99.90;;;;;;6082952;23;20469;-78
2022/09/15 07:27:02;;;;;;;4.90;3.73;;;17.60;99.90;;;;;;6097191;23;20478;-77
2022/09/15 07:29:32;;;;;;;4.30;3.90;;;17.60;99.90;;;;;;6097026;23;20458;-77
2022/09/15 07:31:59;;;;;;;6.07;5.00;;;17.60;99.90;;;;;;6097789;23;20466;-77
2022/09/15 07:34:28;;;;;;;12.87;7.80;;;17.70;99.90;;;;;;6095846;23;20464;-77
2022/09/15 07:36:59;;;;;;;6.10;4.57;;;17.70;99.90;;;;;;6067097;23;20915;-77
2022/09/15 07:39:28;;;;;;;5.10;4.20;;;17.70;99.90;;;;;;6108923;23;20996;-77
2022/09/15 07:41:55;;;;;;;6.97;4.03;;;17.70;99.90;;;;;;6096870;23;20452;-77
2022/09/15 07:44:22;;;;;;;7.40;4.03;;;17.70;99.90;;;;;;6097604;23;20443;-77
2022/09/15 07:46:49;;;;;;;4.93;3.10;;;17.70;99.90;;;;;;6096651;23;20446;-77
2022/09/15 07:49:16;;;;;;;6.50;5.03;;;17.80;99.90;;;;;;6099867;23;20455;-77
2022/09/15 07:51:44;;;;;;;5.03;4.53;;;17.80;99.90;;;;;;6095400;23;20505;-76
2022/09/15 07:54:13;;;;;;;9.03;4.70;;;17.80;99.90;;;;;;6097473;23;20435;-77
2022/09/15 07:56:48;;;;;;;4.50;4.10;;;17.90;99.90;;;;;;6093830;23;20449;-77
2022/09/15 07:59:15;;;;;;;6.47;3.50;;;17.90;99.90;;;;;;6097614;23;20707;-78
2022/09/15 08:01:43;;;;;;;4.67;3.10;;;17.80;99.90;;;;;;6097088;23;20462;-77
2022/09/15 08:04:35;;;;;;;5.20;4.70;;;17.90;99.90;;;;;;6097824;23;20521;-78
2022/09/15 08:07:02;;;;;;;7.33;3.43;;;17.90;99.90;;;;;;6081769;23;20462;-78
2022/09/15 08:09:30;;;;;;;6.50;3.33;;;18.00;99.90;;;;;;6096804;23;20926;-77
2022/09/15 08:11:57;;;;;;;4.00;3.00;;;18.00;99.90;;;;;;6096138;23;20743;-77
2022/09/15 08:14:24;;;;;;;5.93;3.73;;;18.10;99.90;;;;;;6096008;23;20978;-77
2022/09/15 08:16:52;;;;;;;5.93;4.83;;;18.10;99.90;;;;;;6093488;23;20442;-78
2022/09/15 08:19:25;;;;;;;6.03;4.20;;;18.20;99.90;;;;;;6096285;23;20926;-77
2022/09/15 08:21:54;;;;;;;3.53;2.80;;;18.30;99.90;;;;;;6080187;23;20969;-78
2022/09/15 08:24:22;;;;;;;5.37;4.87;;;18.40;99.90;;;;;;6093626;23;20929;-78
2022/09/15 08:26:56;;;;;;;7.33;3.73;;;18.40;99.90;;;;;;6069145;23;20525;-78
2022/09/15 08:29:23;;;;;;;4.57;3.37;;;18.50;99.90;;;;;;6096378;23;20431;-78
2022/09/15 08:31:50;;;;;;;4.53;3.70;;;18.50;99.90;;;;;;6099779;23;20439;-78
2022/09/15 08:34:17;;;;;;;5.13;3.73;;;18.60;99.90;;;;;;6098519;23;20974;-78
2022/09/15 08:36:46;;;;;;;8.20;3.13;;;18.60;99.90;;;;;;6098103;23;20463;-77
2022/09/15 08:42:52;;;;;;;5.60;3.00;;;18.70;99.90;;;;;;6071757;23;20438;-77
2022/09/15 08:45:30;;;;;;;7.37;3.27;;;18.70;99.90;;;;;;6095964;23;20438;-78
2022/09/15 08:48:00;;;;;;;4.20;2.90;;;18.80;99.90;;;;;;6096716;23;20431;-77
2022/09/15 08:50:31;;;;;;;4.47;2.27;;;18.80;99.90;;;;;;6098320;23;20445;-78
2022/09/15 08:53:05;;;;;;;4.50;3.50;;;18.80;99.90;;;;;;6098579;23;20440;-77
2022/09/15 08:56:00;;;;;;;5.07;3.60;;;18.80;99.90;;;;;;6084417;23;20438;-76
2022/09/15 08:58:35;;;;;;;7.73;3.90;;;18.80;99.90;;;;;;6071110;23;20446;-76
2022/09/15 09:01:11;;;;;;;3.60;3.27;;;18.90;99.90;;;;;;6084611;23;20441;-76
2022/09/15 09:03:54;;;;;;;4.67;2.90;;;18.90;99.90;;;;;;6097168;23;20442;-76
2022/09/15 09:06:32;;;;;;;3.63;2.30;;;18.80;99.90;;;;;;6096711;23;20503;-76
2022/09/15 09:09:25;;;;;;;2.97;2.57;;;18.90;99.90;;;;;;6098724;23;20435;-77
2022/09/15 09:12:31;;;;;;;10.03;3.90;;;18.90;99.90;;;;;;6097546;23;20438;-76
2022/09/15 09:15:33;;;;;;;9.43;4.00;;;18.90;99.90;;;;;;6077132;23;20720;-76
2022/09/15 09:18:34;;;;;;;9.10;2.90;;;18.90;99.90;;;;;;6098313;23;20430;-77
2022/09/15 09:21:09;;;;;;;3.40;2.70;;;18.90;99.90;;;;;;6097250;23;20431;-77
2022/09/15 09:23:47;;;;;;;5.60;2.80;;;18.90;99.90;;;;;;6099233;23;20439;-78
2022/09/15 09:26:15;;;;;;;5.97;2.77;;;18.90;99.90;;;;;;6099410;23;20747;-77
2022/09/15 09:29:25;;;;;;;5.87;3.07;;;19.00;99.90;;;;;;6098501;23;20427;-77
2022/09/15 09:31:56;;;;;;;3.80;2.77;;;19.00;99.90;;;;;;6084178;23;20440;-77
2022/09/15 09:34:31;;;;;;;3.20;2.57;;;19.10;99.90;;;;;;6097570;23;20442;-77
2022/09/15 09:37:10;;;;;;;8.17;4.60;;;19.10;99.90;;;;;;6082159;23;20473;-77
2022/09/15 09:39:38;;;;;;;4.13;2.93;;;19.20;99.90;;;;;;6097609;23;20478;-77
2022/09/15 09:42:07;;;;;;;3.77;2.20;;;19.20;99.90;;;;;;6099087;23;20444;-76
2022/09/15 09:47:20;;;;;;;5.47;2.30;;;19.30;99.90;;;;;;6033254;23;20932;-77
2022/09/15 09:50:02;;;;;;;5.00;2.77;;;19.40;99.90;;;;;;6088295;23;20730;-77
2022/09/15 09:52:34;;;;;;;7.87;4.40;;;19.40;99.90;;;;;;6098452;23;20517;-78
2022/09/15 09:55:03;;;;;;;3.93;2.70;;;19.40;99.90;;;;;;6098490;23;20423;-75
2022/09/15 09:57:31;;;;;;;4.67;2.20;;;19.40;99.90;;;;;;6098731;23;20439;-77
2022/09/15 10:00:03;;;;;;;3.90;2.63;;;19.50;99.90;;;;;;6096446;23;20494;-75
2022/09/15 10:02:32;;;;;;;5.67;4.33;;;19.50;99.90;;;;;;6098390;23;20463;-77
2022/09/15 10:05:20;;;;;;;5.40;2.70;;;19.50;99.90;;;;;;6098250;23;20436;-77
2022/09/15 10:07:54;;;;;;;3.03;2.03;;;19.60;99.90;;;;;;6082026;23;20431;-77
2022/09/15 10:10:23;;;;;;;6.93;3.40;;;19.70;99.90;;;;;;6096714;23;20439;-78
2022/09/15 10:12:55;;;;;;;2.70;1.90;;;19.70;99.90;;;;;;6097852;23;20434;-78
2022/09/15 10:15:40;;;;;;;2.50;2.30;;;19.80;99.90;;;;;;6081620;23;20729;-78
2022/09/15 10:18:31;;;;;;;2.43;2.13;;;19.90;99.90;;;;;;6098379;23;20519;-77
2022/09/15 10:21:06;;;;;;;5.13;2.60;;;19.90;99.90;;;;;;6099255;23;20912;-77
2022/09/15 10:23:34;;;;;;;5.27;2.30;;;20.00;99.90;;;;;;6082282;23;20899;-77
2022/09/15 10:26:23;;;;;;;4.10;1.97;;;20.10;99.90;;;;;;6098042;23;20471;-76
2022/09/15 10:29:14;;;;;;;6.57;2.23;;;20.10;99.90;;;;;;6098555;23;20724;-77
2022/09/15 10:31:42;;;;;;;3.03;1.60;;;20.20;99.90;;;;;;6097918;23;20440;-77
2022/09/15 10:35:09;;;;;;;3.70;2.50;;;20.20;99.90;;;;;;6097585;23;20908;-77
2022/09/15 10:37:58;;;;;;;4.13;2.50;;;20.30;99.90;;;;;;5999278;23;20726;-77
2022/09/15 10:40:48;;;;;;;4.00;2.60;;;20.40;99.90;;;;;;6096027;23;20435;-76
2022/09/15 10:43:38;;;;;;;3.83;2.00;;;20.40;99.90;;;;;;6082889;23;20441;-76
2022/09/15 10:46:12;;;;;;;3.87;2.10;;;20.40;99.90;;;;;;6096522;23;20435;-76
2022/09/15 10:48:53;;;;;;;4.53;2.47;;;20.50;99.90;;;;;;6082632;23;20450;-77
2022/09/15 10:51:33;;;;;;;2.73;1.80;;;20.50;99.90;;;;;;6080872;23;20478;-77
2022/09/15 10:54:24;;;;;;;3.07;1.83;;;20.50;99.90;;;;;;6097435;23;20507;-76
2022/09/15 10:56:59;;;;;;;3.60;2.50;;;20.50;99.90;;;;;;6097637;23;20431;-77
2022/09/15 10:59:44;;;;;;;3.83;2.70;;;20.50;99.90;;;;;;6097988;23;20436;-77
2022/09/15 11:02:44;;;;;;;2.80;2.50;;;20.40;99.90;;;;;;6097874;23;20749;-77
2022/09/15 11:05:27;;;;;;;3.40;2.70;;;20.40;99.90;;;;;;6096047;23;20432;-77
2022/09/15 11:11:04;;;;;;;7.40;2.20;;;20.40;99.90;;;;;;6084085;23;20439;-78
2022/09/15 11:16:50;;;;;;;5.63;3.80;;;20.30;99.90;;;;;;6097478;23;20437;-77
2022/09/15 11:19:49;;;;;;;3.60;3.10;;;20.30;99.90;;;;;;6081581;23;20502;-78
2022/09/15 11:22:48;;;;;;;3.80;2.47;;;20.30;99.90;;;;;;6082714;23;20744;-78
2022/09/15 11:25:19;;;;;;;2.43;2.20;;;20.20;99.90;;;;;;6097272;23;20798;-78
2022/09/15 11:27:54;;;;;;;3.40;3.07;;;20.20;99.90;;;;;;6093011;23;20447;-79
2022/09/15 11:30:25;;;;;;;3.20;1.70;;;20.20;99.90;;;;;;6096334;23;20427;-78
2022/09/15 11:33:01;;;;;;;4.20;2.63;;;20.30;99.90;;;;;;6097132;23;20436;-78
2022/09/15 11:35:39;;;;;;;3.20;2.47;;;20.30;99.90;;;;;;6079656;23;20444;-78
2022/09/15 11:38:22;;;;;;;2.80;2.30;;;20.40;99.90;;;;;;6082379;23;20530;-78
2022/09/15 11:40:58;;;;;;;3.07;1.77;;;20.40;99.90;;;;;;6082456;23;20445;-78
2022/09/15 11:43:33;;;;;;;2.13;1.70;;;20.40;99.90;;;;;;6092761;23;20690;-77
2022/09/15 11:46:03;;;;;;;1.87;1.43;;;20.40;99.90;;;;;;6096670;23;20433;-76
2022/09/15 11:48:36;;;;;;;3.37;1.53;;;20.50;99.90;;;;;;6097021;23;20459;-78
2022/09/15 11:51:07;;;;;;;1.60;1.50;;;20.40;99.90;;;;;;6096791;23;20438;-78
2022/09/15 11:53:41;;;;;;;4.30;1.80;;;20.40;99.70;;;;;;6097636;23;20865;-78
2022/09/15 11:56:18;;;;;;;3.37;2.13;;;20.40;99.30;;;;;;6084052;23;20477;-78
2022/09/15 11:59:03;;;;;;;2.50;1.77;;;20.40;98.50;;;;;;6080732;23;20424;-76
2022/09/15 12:01:34;;;;;;;3.20;1.63;;;20.30;98.40;;;;;;6080872;23;20458;-78
2022/09/15 12:04:04;;;;;;;1.97;1.43;;;20.30;98.60;;;;;;6081126;23;20456;-78
2022/09/15 12:06:43;;;;;;;3.30;1.43;;;20.30;98.40;;;;;;6090595;23;20441;-78
2022/09/15 12:09:14;;;;;;;3.10;1.70;;;20.20;98.60;;;;;;6081147;23;20448;-78
2022/09/15 12:11:45;;;;;;;7.63;2.27;;;20.20;98.70;;;;;;6081332;23;20444;-77
2022/09/15 12:14:17;;;;;;;4.33;2.40;;;20.20;98.80;;;;;;6096621;23;20443;-78
2022/09/15 12:16:46;;;;;;;3.67;2.33;;;20.20;99.00;;;;;;6097380;23;20446;-78
2022/09/15 12:19:21;;;;;;;3.00;1.40;;;20.20;99.50;;;;;;6095864;23;20450;-77
2022/09/15 12:22:00;;;;;;;2.00;1.60;;;20.20;99.20;;;;;;6071803;23;20454;-77
2022/09/15 12:24:38;;;;;;;2.63;1.97;;;20.20;99.20;;;;;;6097114;23;20955;-77
2022/09/15 12:27:12;;;;;;;5.87;2.23;;;20.20;99.20;;;;;;6075596;23;20435;-77
2022/09/15 12:29:58;;;;;;;4.73;2.20;;;20.20;98.90;;;;;;6095691;23;20435;-78
2022/09/15 12:32:36;;;;;;;4.13;2.53;;;20.10;99.00;;;;;;6094743;23;20438;-78
2022/09/15 12:35:34;;;;;;;3.80;1.77;;;20.10;99.10;;;;;;6094758;23;20995;-79
2022/09/15 12:38:01;;;;;;;3.67;2.27;;;20.00;99.40;;;;;;6096208;23;20436;-78
2022/09/15 12:40:36;;;;;;;2.50;1.90;;;20.00;99.40;;;;;;6081667;23;20479;-78
2022/09/15 12:46:06;;;;;;;3.30;1.80;;;20.00;99.20;;;;;;6094049;23;20536;-77
2022/09/15 12:48:35;;;;;;;3.67;1.93;;;20.00;99.00;;;;;;6079477;23;20436;-77
2022/09/15 12:51:11;;;;;;;1.93;1.60;;;20.00;99.10;;;;;;6096350;23;20443;-77
2022/09/15 12:53:55;;;;;;;2.90;1.80;;;20.00;99.30;;;;;;6096821;23;20443;-77
2022/09/15 12:56:35;;;;;;;2.50;1.70;;;20.00;99.40;;;;;;6089864;23;20511;-77
2022/09/15 12:59:12;;;;;;;3.40;1.87;;;20.10;99.30;;;;;;6078031;23;20439;-78
2022/09/15 13:01:53;;;;;;;2.23;1.40;;;20.00;99.10;;;;;;6095583;23;20443;-78
2022/09/15 13:05:03;;;;;;;2.53;1.43;;;20.00;98.60;;;;;;6096279;23;20460;-77
2022/09/15 13:07:53;;;;;;;3.27;1.50;;;20.10;98.10;;;;;;6094075;23;20796;-78
2022/09/15 13:10:33;;;;;;;3.80;2.10;;;20.00;97.50;;;;;;6095969;23;20439;-78
2022/09/15 13:13:21;;;;;;;3.33;1.43;;;20.00;97.30;;;;;;6096500;23;20569;-78
2022/09/15 13:15:53;;;;;;;3.97;1.53;;;20.10;97.40;;;;;;6092477;23;20435;-78
2022/09/15 13:18:36;;;;;;;3.30;1.63;;;20.10;97.50;;;;;;6097136;23;20457;-78
2022/09/15 13:21:07;;;;;;;1.83;1.17;;;20.10;97.50;;;;;;6095551;23;20455;-78
2022/09/15 13:23:40;;;;;;;2.20;1.13;;;20.10;97.90;;;;;;6099918;23;20446;-78
2022/09/15 13:26:22;;;;;;;4.90;2.50;;;20.20;97.70;;;;;;6057986;23;20445;-78
2022/09/15 13:28:51;;;;;;;7.03;2.03;;;20.20;97.80;;;;;;6096836;23;20464;-78
2022/09/15 13:31:28;;;;;;;4.10;1.73;;;20.30;97.60;;;;;;6096734;23;20436;-78
2022/09/15 13:34:32;;;;;;;3.23;1.70;;;20.30;96.80;;;;;;6079504;23;20441;-78
2022/09/15 13:37:13;;;;;;;3.30;1.53;;;20.30;96.30;;;;;;6097666;23;20898;-77
2022/09/15 13:40:11;;;;;;;1.67;1.43;;;20.30;96.30;;;;;;6098483;23;20464;-77
2022/09/15 13:43:01;;;;;;;2.67;1.40;;;20.40;96.40;;;;;;6081595;23;20441;-77
2022/09/15 13:45:48;;;;;;;1.93;1.23;;;20.40;96.50;;;;;;6094474;23;20448;-77
2022/09/15 13:54:17;;;;;;;4.43;1.93;;;20.40;96.70;;;;;;6095567;23;20495;-77
2022/09/15 14:00:17;;;;;;;6.17;4.70;;;20.30;96.70;;;;;;6079561;23;20495;-77
2022/09/15 14:02:58;;;;;;;5.30;4.80;;;20.30;96.80;;;;;;6061217;23;20447;-76
2022/09/15 14:05:28;;;;;;;5.30;3.50;;;20.30;97.00;;;;;;6097529;23;20443;-76
2022/09/15 14:08:16;;;;;;;3.77;2.00;;;20.20;97.30;;;;;;6081793;23;20736;-76
2022/09/15 14:10:50;;;;;;;2.73;1.37;;;20.20;97.20;;;;;;6083321;23;20767;-77
2022/09/15 14:16:01;;;;;;;3.63;1.10;;;20.20;97.20;;;;;;6087087;23;20425;-76
2022/09/15 14:18:49;;;;;;;1.83;1.30;;;20.30;97.00;;;;;;6098318;23;20449;-77
2022/09/15 14:21:18;;;;;;;2.03;1.13;;;20.30;96.90;;;;;;6098354;23;20442;-78
2022/09/15 14:23:51;;;;;;;1.40;1.20;;;20.30;96.80;;;;;;6081929;23;20436;-78
2022/09/15 14:26:20;;;;;;;1.50;1.40;;;20.30;96.80;;;;;;6096714;23;20437;-78
2022/09/15 14:28:53;;;;;;;1.93;1.07;;;20.30;96.70;;;;;;6097910;23;20437;-78
2022/09/15 14:31:31;;;;;;;2.43;1.43;;;20.20;96.70;;;;;;6096960;23;20436;-78
2022/09/15 14:34:06;;;;;;;2.80;1.73;;;20.20;96.50;;;;;;6096618;23;20437;-78
2022/09/15 14:36:35;;;;;;;1.33;1.20;;;20.20;96.50;;;;;;6097730;23;20775;-78
2022/09/15 14:39:42;;;;;;;2.27;1.47;;;20.20;96.60;;;;;;6097843;23;20491;-78
2022/09/15 14:42:20;;;;;;;2.33;1.40;;;20.20;96.70;;;;;;6098142;23;20519;-78
2022/09/15 14:44:47;;;;;;;2.00;1.60;;;20.20;96.70;;;;;;6097582;23;20490;-78
2022/09/15 14:47:19;;;;;;;2.73;1.30;;;20.20;96.80;;;;;;6096775;23;20468;-79
2022/09/15 14:50:06;;;;;;;1.70;1.60;;;20.20;96.80;;;;;;6080605;23;20485;-77
2022/09/15 14:52:38;;;;;;;1.30;1.00;;;20.30;96.80;;;;;;6097507;23;20752;-77
2022/09/15 14:55:22;;;;;;;1.50;1.30;;;20.30;97.00;;;;;;6096643;23;20433;-77
2022/09/15 14:57:57;;;;;;;3.67;1.23;;;20.30;97.00;;;;;;6096396;23;20446;-77
2022/09/15 15:00:29;;;;;;;2.20;1.10;;;20.30;97.00;;;;;;6084208;23;20976;-78
2022/09/15 15:03:21;;;;;;;3.87;1.33;;;20.20;96.80;;;;;;6095208;23;20937;-76
2022/09/15 15:06:01;;;;;;;4.60;3.77;;;20.20;96.90;;;;;;6083919;23;20440;-78
2022/09/15 15:08:35;;;;;;;3.80;3.50;;;20.20;96.80;;;;;;6097276;23;20763;-77
2022/09/15 15:11:04;;;;;;;3.17;2.73;;;20.20;96.80;;;;;;6095736;23;20783;-77
2022/09/15 15:13:33;;;;;;;2.17;1.73;;;20.10;96.80;;;;;;6080885;23;20456;-77
2022/09/15 15:16:00;;;;;;;2.40;1.63;;;20.10;96.80;;;;;;6095152;23;20518;-77
2022/09/15 15:18:40;;;;;;;1.70;1.40;;;20.10;96.80;;;;;;6081522;23;20502;-76
2022/09/15 15:21:30;;;;;;;2.10;1.23;;;20.10;96.60;;;;;;6093743;23;20450;-77
2022/09/15 15:23:59;;;;;;;2.30;1.10;;;20.10;96.30;;;;;;6096427;23;20474;-77
2022/09/15 15:26:34;;;;;;;2.20;1.00;;;20.00;96.10;;;;;;6065816;23;20443;-76
2022/09/15 15:29:41;;;;;;;3.90;1.20;;;20.00;95.80;;;;;;6109257;23;20923;-77
2022/09/15 15:32:12;;;;;;;3.50;1.73;;;19.90;95.60;;;;;;6097049;23;20443;-78
2022/09/15 15:34:40;;;;;;;2.30;1.93;;;19.90;95.40;;;;;;6097998;23;20435;-76
2022/09/15 15:40:18;;;;;;;9.40;6.13;;;19.80;96.40;;;;;;6059837;23;20426;-76
2022/09/15 15:43:17;;;;;;;5.70;5.20;;;19.70;96.60;;;;;;6097435;23;20435;-77
2022/09/15 15:45:50;;;;;;;3.27;2.97;;;19.70;96.80;;;;;;6097781;23;20428;-77
2022/09/15 15:48:17;;;;;;;3.60;2.57;;;19.60;96.90;;;;;;6096118;23;20463;-77
2022/09/15 15:50:51;;;;;;;5.07;3.10;;;19.60;97.00;;;;;;6096470;23;20717;-77
2022/09/15 15:53:18;;;;;;;7.53;6.60;;;19.50;97.00;;;;;;6095028;23;20514;-77
2022/09/15 15:55:46;;;;;;;3.47;3.20;;;19.50;96.90;;;;;;6097555;23;20446;-78
2022/09/15 15:58:14;;;;;;;4.10;2.63;;;19.50;97.00;;;;;;6095563;23;20447;-79
2022/09/15 16:00:48;;;;;;;3.03;2.47;;;19.40;97.10;;;;;;6095319;23;20818;-77
2022/09/15 16:03:30;;;;;;;2.10;1.80;;;19.40;97.10;;;;;;6096125;23;20445;-77
2022/09/15 16:06:05;;;;;;;2.57;1.70;;;19.30;97.20;;;;;;6095345;23;20435;-78
2022/09/15 16:08:36;;;;;;;2.90;1.80;;;19.30;97.20;;;;;;6095621;23;20786;-78
2022/09/15 16:11:04;;;;;;;2.00;1.63;;;19.20;97.30;;;;;;6096720;23;20432;-77
2022/09/15 16:13:31;;;;;;;2.37;1.47;;;19.20;97.70;;;;;;6080986;23;20499;-76
2022/09/15 16:16:07;;;;;;;1.53;1.27;;;19.20;98.20;;;;;;6080691;23;20467;-77
2022/09/15 16:18:36;;;;;;;3.10;1.50;;;19.20;98.30;;;;;;6082688;23;20431;-76
2022/09/15 16:21:06;;;;;;;2.27;1.57;;;19.10;98.40;;;;;;6096135;23;20436;-77
2022/09/15 16:23:38;;;;;;;2.40;1.70;;;19.10;98.60;;;;;;6095690;23;20440;-76
2022/09/15 16:26:07;;;;;;;3.13;2.03;;;19.00;98.80;;;;;;6081545;23;20447;-77
2022/09/15 16:28:57;;;;;;;1.93;1.73;;;19.00;99.20;;;;;;6081107;23;21031;-77
2022/09/15 16:31:31;;;;;;;2.80;1.87;;;18.90;99.30;;;;;;6058597;23;20466;-76
2022/09/15 16:33:59;;;;;;;2.10;1.63;;;18.90;99.40;;;;;;6096467;23;20526;-76
2022/09/15 16:36:26;;;;;;;1.70;1.23;;;18.80;99.60;;;;;;6096915;23;20439;-77
2022/09/15 16:38:54;;;;;;;4.97;1.80;;;18.80;99.80;;;;;;6097078;23;20439;-77
2022/09/15 16:44:18;;;;;;;2.97;1.80;;;18.70;99.90;;;;;;6094433;23;20922;-77
2022/09/15 16:46:57;;;;;;;2.27;1.40;;;18.60;99.90;;;;;;6094697;23;20435;-76
2022/09/15 16:49:26;;;;;;;3.27;1.20;;;18.60;99.90;;;;;;6094311;23;20719;-77
2022/09/15 16:52:09;;;;;;;2.40;1.97;;;18.60;99.90;;;;;;6096230;23;20981;-77
2022/09/15 16:54:36;;;;;;;2.30;2.10;;;18.60;99.90;;;;;;6096977;23;20736;-77
2022/09/15 16:57:06;;;;;;;2.77;1.93;;;18.50;99.90;;;;;;6096688;23;20423;-76
2022/09/15 16:59:48;;;;;;;2.43;2.13;;;18.50;99.90;;;;;;6096065;23;20443;-77
2022/09/15 17:02:15;;;;;;;2.23;2.00;;;18.50;99.90;;;;;;6095904;23;20438;-77
2022/09/15 17:04:53;;;;;;;3.90;1.67;;;18.40;99.90;;;;;;6097061;23;20478;-78
2022/09/15 17:07:58;;;;;;;2.13;1.60;;;18.40;99.90;;;;;;6096182;23;21198;-78
2022/09/15 17:10:25;;;;;;;1.97;1.70;;;18.40;99.90;;;;;;6072354;23;20467;-78
2022/09/15 17:12:52;;;;;;;2.30;2.10;;;18.40;99.90;;;;;;6083283;23;20450;-78
2022/09/15 17:15:25;;;;;;;3.07;2.60;;;18.30;99.90;;;;;;6074933;23;20926;-78
2022/09/15 17:17:53;;;;;;;3.20;2.50;;;18.30;99.90;;;;;;6098186;23;20482;-78
2022/09/15 17:20:22;;;;;;;4.17;3.13;;;18.30;99.90;;;;;;6097497;23;20446;-77
2022/09/15 17:22:57;;;;;;;2.63;2.30;;;18.30;99.90;;;;;;6098315;23;20442;-77
2022/09/15 17:25:35;;;;;;;4.50;2.83;;;18.30;99.90;;;;;;6097760;23;20561;-77
2022/09/15 17:28:06;;;;;;;2.10;1.90;;;18.20;99.90;;;;;;6096199;23;20441;-77
2022/09/15 17:30:35;;;;;;;6.00;5.40;;;18.20;99.90;;;;;;6082869;23;20439;-77
2022/09/15 17:33:14;;;;;;;4.17;3.03;;;18.20;99.90;;;;;;6094162;23;20541;-78
2022/09/15 17:35:43;;;;;;;3.70;3.37;;;18.20;99.90;;;;;;6097532;23;20460;-77
2022/09/15 17:38:10;;;;;;;4.30;3.90;;;18.10;99.90;;;;;;6096311;23;20510;-77
2022/09/15 17:40:41;;;;;;;3.30;3.00;;;18.20;99.90;;;;;;6086558;23;20431;-78
2022/09/15 17:43:15;;;;;;;2.53;2.33;;;18.10;99.90;;;;;;6080496;23;20525;-77
2022/09/15 17:45:42;;;;;;;2.63;2.00;;;18.10;99.90;;;;;;6082491;23;20442;-77
2022/09/15 17:48:12;;;;;;;2.83;2.10;;;18.10;99.90;;;;;;6079858;23;20498;-77
2022/09/15 17:50:42;;;;;;;3.13;2.40;;;18.10;99.90;;;;;;6098050;23;20438;-77
2022/09/15 17:53:25;;;;;;;2.67;2.37;;;18.10;99.90;;;;;;6097448;23;20517;-77
2022/09/15 17:56:06;;;;;;;2.27;1.73;;;18.10;99.90;;;;;;6098611;23;20450;-76
2022/09/15 17:58:33;;;;;;;2.70;1.90;;;18.10;99.90;;;;;;6098092;23;20423;-77
2022/09/15 18:01:00;;;;;;;5.20;2.37;;;18.10;99.90;;;;;;6082144;23;20475;-77
2022/09/15 18:03:32;;;;;;;2.20;1.60;;;18.10;99.90;;;;;;6083512;23;20744;-76
2022/09/15 18:06:03;;;;;;;2.50;2.03;;;18.00;99.90;;;;;;6095052;23;20911;-77
2022/09/15 18:08:34;;;;;;;1.77;1.60;;;18.00;99.90;;;;;;6083036;23;20522;-77
2022/09/15 18:11:02;;;;;;;1.63;1.40;;;18.00;99.90;;;;;;6096860;23;20431;-77
2022/09/15 18:13:30;;;;;;;2.90;2.30;;;18.00;99.90;;;;;;6096002;23;20448;-78
2022/09/15 18:16:15;;;;;;;2.80;1.70;;;17.90;99.90;;;;;;6098956;23;20771;-78
2022/09/15 18:18:42;;;;;;;1.87;1.17;;;17.90;99.90;;;;;;6096866;23;20457;-77
2022/09/15 18:21:48;;;;;;;1.50;1.40;;;17.90;99.90;;;;;;6097792;23;20502;-78
2022/09/15 18:24:16;;;;;;;3.00;2.13;;;17.90;99.90;;;;;;6096607;23;20442;-77
2022/09/15 18:26:54;;;;;;;2.33;2.13;;;17.80;99.90;;;;;;6098004;23;20442;-78
2022/09/15 18:29:23;;;;;;;1.87;1.60;;;17.80;99.90;;;;;;6081030;23;20450;-78
2022/09/15 18:31:51;;;;;;;1.33;1.20;;;17.80;99.90;;;;;;6096764;23;20739;-77
2022/09/15 18:34:18;;;;;;;4.30;1.83;;;17.80;99.90;;;;;;6081874;23;20446;-76
2022/09/15 18:36:48;;;;;;;4.00;3.10;;;17.70;99.90;;;;;;6097525;23;20438;-78
2022/09/15 18:39:17;;;;;;;2.43;2.23;;;17.70;99.90;;;;;;6097646;23;20468;-79
2022/09/15 18:41:44;;;;;;;2.23;2.03;;;17.70;99.90;;;;;;6096517;23;20445;-77
2022/09/15 18:44:11;;;;;;;2.80;2.47;;;17.70;99.90;;;;;;6083885;23;20442;-77
2022/09/15 18:46:39;;;;;;;1.83;1.40;;;17.60;99.90;;;;;;6097867;23;20439;-77
2022/09/15 18:49:08;;;;;;;3.33;1.70;;;17.60;99.90;;;;;;6083345;23;20442;-77
2022/09/15 18:51:35;;;;;;;1.80;1.70;;;17.60;99.90;;;;;;6079928;23;20447;-76
2022/09/15 18:54:11;;;;;;;5.83;4.27;;;17.60;99.90;;;;;;6097971;23;20456;-77
2022/09/15 18:57:08;;;;;;;5.17;4.67;;;17.60;99.90;;;;;;6094967;23;20472;-77
2022/09/15 18:59:36;;;;;;;2.80;2.60;;;17.50;99.90;;;;;;6083489;23;20439;-77
2022/09/15 19:02:05;;;;;;;2.17;1.97;;;17.50;99.90;;;;;;6098194;23;20452;-77
2022/09/15 19:04:32;;;;;;;2.30;1.90;;;17.50;99.90;;;;;;6096533;23;20436;-78
2022/09/15 19:06:59;;;;;;;2.13;1.03;;;17.50;99.90;;;;;;6082384;23;20457;-78
2022/09/15 19:09:27;;;;;;;2.47;1.40;;;17.50;99.90;;;;;;6097166;23;20438;-77
2022/09/15 19:11:54;;;;;;;1.83;1.60;;;17.50;99.90;;;;;;6097087;23;20430;-76
2022/09/15 19:14:43;;;;;;;2.10;1.70;;;17.50;99.90;;;;;;6082659;23;20561;-77
2022/09/15 19:17:17;;;;;;;2.77;1.80;;;17.50;99.90;;;;;;6083549;23;20445;-76
2022/09/15 19:19:45;;;;;;;2.63;2.40;;;17.40;99.90;;;;;;6095149;23;20455;-77
2022/09/15 19:22:14;;;;;;;6.83;5.40;;;17.50;99.90;;;;;;6096964;23;20449;-77
2022/09/15 19:24:43;;;;;;;3.40;2.00;;;17.40;99.90;;;;;;6096377;23;20921;-77
2022/09/15 19:27:20;;;;;;;2.70;2.50;;;17.40;99.90;;;;;;6096514;23;20437;-77
2022/09/15 19:29:49;;;;;;;6.83;2.23;;;17.40;99.90;;;;;;6096754;23;20445;-77
2022/09/15 19:32:19;;;;;;;1.97;1.70;;;17.40;99.90;;;;;;6092573;23;20446;-78
2022/09/15 19:34:48;;;;;;;1.87;1.70;;;17.40;99.90;;;;;;6095161;23;20950;-78
2022/09/15 19:37:17;;;;;;;2.67;2.03;;;17.40;99.90;;;;;;6094691;23;20499;-77
2022/09/15 19:39:47;;;;;;;3.10;1.70;;;17.40;99.90;;;;;;6097041;23;20769;-77
2022/09/15 19:42:14;;;;;;;2.23;2.03;;;17.40;99.90;;;;;;6083856;23;20445;-78
2022/09/15 19:44:42;;;;;;;1.93;1.50;;;17.40;99.90;;;;;;6097249;23;20446;-76
2022/09/15 19:47:10;;;;;;;2.27;1.90;;;17.40;99.90;;;;;;6096593;23;20442;-78
2022/09/15 19:49:40;;;;;;;3.13;1.83;;;17.40;99.90;;;;;;6096964;23;20781;-77
2022/09/15 19:52:07;;;;;;;4.60;2.53;;;17.40;99.90;;;;;;6096376;23;20934;-78
2022/09/15 19:54:34;;;;;;;2.80;1.93;;;17.40;99.90;;;;;;6096262;23;20955;-77
2022/09/15 19:57:04;;;;;;;2.13;1.87;;;17.40;99.90;;;;;;6096645;23;20468;-76
2022/09/15 19:59:31;;;;;;;3.10;2.53;;;17.30;99.90;;;;;;6096171;23;20443;-79
2022/09/15 20:01:58;;;;;;;1.80;1.70;;;17.40;99.90;;;;;;6097521;23;20447;-76
2022/09/15 20:04:33;;;;;;;2.17;1.70;;;17.30;99.90;;;;;;6096898;23;20438;-77
2022/09/15 20:07:00;;;;;;;2.23;1.60;;;17.30;99.90;;;;;;6097379;23;20958;-77
2022/09/15 20:09:27;;;;;;;3.90;2.43;;;17.30;99.90;;;;;;6096570;23;20522;-77
2022/09/15 20:11:57;;;;;;;3.07;2.60;;;17.30;99.90;;;;;;6084130;23;20460;-78
2022/09/15 20:14:25;;;;;;;4.90;2.53;;;17.30;99.90;;;;;;6096611;23;20449;-77
2022/09/15 20:16:52;;;;;;;2.13;1.90;;;17.30;99.90;;;;;;6096924;23;20984;-78
2022/09/15 20:19:19;;;;;;;3.50;2.03;;;17.30;99.90;;;;;;6080619;23;20525;-76
2022/09/15 20:21:53;;;;;;;1.80;1.30;;;17.30;99.90;;;;;;6096788;23;20450;-78
2022/09/15 20:24:21;;;;;;;2.63;2.40;;;17.30;99.90;;;;;;6081017;23;20456;-76
2022/09/15 20:26:48;;;;;;;2.53;1.90;;;17.30;99.90;;;;;;6067934;23;20447;-78
2022/09/15 20:29:16;;;;;;;3.63;1.67;;;17.30;99.90;;;;;;6095905;23;20464;-78
2022/09/15 20:31:44;;;;;;;2.87;1.83;;;17.20;99.90;;;;;;6096433;23;20434;-76
2022/09/15 20:34:18;;;;;;;2.53;1.33;;;17.30;99.90;;;;;;6097204;23;20523;-75
2022/09/15 20:36:45;;;;;;;2.43;2.23;;;17.20;99.90;;;;;;6081470;23;20440;-75
2022/09/15 20:39:20;;;;;;;2.50;2.30;;;17.20;99.90;;;;;;6096764;23;20452;-76
2022/09/15 20:41:47;;;;;;;2.07;1.60;;;17.20;99.90;;;;;;6095914;23;20444;-77
2022/09/15 20:44:15;;;;;;;2.70;2.50;;;17.10;99.90;;;;;;6098480;23;20525;-77
2022/09/15 20:46:43;;;;;;;2.90;2.17;;;17.10;99.90;;;;;;6097010;23;20448;-76
2022/09/15 20:49:11;;;;;;;5.47;2.30;;;17.10;99.90;;;;;;6100545;23;20494;-77
2022/09/15 20:51:38;;;;;;;2.13;1.93;;;17.10;99.90;;;;;;6099939;23;20445;-77
2022/09/15 20:54:06;;;;;;;3.80;1.87;;;17.10;99.90;;;;;;6099800;23;20450;-75
2022/09/15 20:56:35;;;;;;;3.20;1.97;;;17.00;99.90;;;;;;6098116;23;20528;-77
2022/09/15 20:59:02;;;;;;;2.77;1.90;;;17.00;99.90;;;;;;6100223;23;20925;-76
2022/09/15 21:01:32;;;;;;;3.57;1.90;;;17.00;99.90;;;;;;6099818;23;20444;-77
2022/09/15 21:04:01;;;;;;;6.57;2.43;;;17.00;99.90;;;;;;6100322;23;20437;-76
2022/09/15 21:06:31;;;;;;;2.23;1.70;;;17.00;99.90;;;;;;6098474;23;20442;-78
2022/09/15 21:08:59;;;;;;;3.10;2.00;;;16.90;99.90;;;;;;6099308;23;20443;-76
2022/09/15 21:11:28;;;;;;;6.30;1.70;;;16.90;99.90;;;;;;6095906;23;20995;-76
2022/09/15 21:13:57;;;;;;;2.83;2.63;;;16.90;99.90;;;;;;6083771;23;20431;-78
2022/09/15 21:16:28;;;;;;;2.43;1.73;;;16.90;99.90;;;;;;6099990;23;20448;-76
2022/09/15 21:18:58;;;;;;;1.83;1.33;;;16.80;99.90;;;;;;6087108;23;20453;-78